Time;durP1;ratioP1;P1;durP2;ratioP2;P2;SDS_P1;SDS_P2;PMS_P1;PMS_P2;Temp;Humidity;BMP_temperature;BMP_pressure;BME280_temperature;BME280_humidity;BME280_pressure;Samples;Min_cycle;Max_cycle;Signal;HPM_P1;HPM_P2
2023/05/27 00:01:12;;;;;;;;;;;;;;;16.90;41.16;97331.88;6322567;28;19924;-73
2023/05/27 00:04:13;;;;;;;;;;;;;;;16.85;41.37;97336.75;6322616;28;19920;-73
2023/05/27 00:07:17;;;;;;;;;;;;;;;16.80;40.99;97337.97;6322785;28;19924;-73
2023/05/27 00:10:20;;;;;;;;;;;;;;;16.79;41.81;97338.13;6322930;28;19924;-74
2023/05/27 00:13:21;;;;;;;;;;;;;;;16.79;41.72;97335.47;6322277;28;20018;-74
2023/05/27 00:16:28;;;;;;;;;;;;;;;16.82;41.95;97335.19;6322436;28;19931;-74
2023/05/27 00:19:30;;;;;;;;;;;;;;;16.87;41.92;97333.00;6322238;28;20037;-74
2023/05/27 00:22:32;;;;;;;;;;;;;;;16.91;41.67;97337.09;6321593;28;19920;-74
2023/05/27 00:25:33;;;;;;;;;;;;;;;16.93;41.89;97335.16;6321434;28;19924;-73
2023/05/27 00:28:36;;;;;;;;;;;;;;;16.98;42.35;97332.94;6322468;28;19928;-74
2023/05/27 00:31:37;;;;;;;;;;;;;;;17.09;41.99;97332.03;6321985;28;19931;-75
2023/05/27 00:34:40;;;;;;;;;;;;;;;17.19;42.03;97340.09;6322074;28;19924;-74
2023/05/27 00:37:41;;;;;;;;;;;;;;;17.25;41.62;97336.91;6322191;28;19931;-74
2023/05/27 00:40:46;;;;;;;;;;;;;;;17.29;42.47;97341.00;6322151;28;19928;-73
2023/05/27 00:43:49;;;;;;;;;;;;;;;17.36;41.04;97339.50;6321472;28;19924;-74
2023/05/27 00:46:53;;;;;;;;;;;;;;;17.41;42.45;97347.94;6321889;28;19924;-74
2023/05/27 00:49:56;;;;;;;;;;;;;;;17.46;41.47;97345.72;6322157;28;20305;-74
2023/05/27 00:52:58;;;;;;;;;;;;;;;17.54;41.42;97349.56;6321295;28;19920;-74
2023/05/27 00:55:59;;;;;;;;;;;;;;;17.59;41.06;97344.69;6321187;28;19931;-74
2023/05/27 00:59:00;;;;;;;;;;;;;;;17.67;41.27;97342.22;6321697;28;19947;-74
2023/05/27 01:02:04;;;;;;;;;;;;;;;17.74;40.83;97348.69;6321173;28;19920;-75
2023/05/27 01:05:09;;;;;;;;;;;;;;;17.84;40.95;97349.63;6321467;28;19923;-73
2023/05/27 01:08:37;;;;;;;;;;;;;;;17.95;40.72;97344.19;6321411;28;19974;-74
2023/05/27 01:11:47;;;;;;;;;;;;;;;18.10;40.31;97352.66;6321831;28;19924;-74
2023/05/27 01:14:51;;;;;;;;;;;;;;;18.26;40.82;97353.94;6321346;28;19924;-75
2023/05/27 01:18:02;;;;;;;;;;;;;;;18.44;39.81;97351.50;6321373;28;19924;-74
2023/05/27 01:21:05;;;;;;;;;;;;;;;18.59;39.81;97358.09;6321022;28;19931;-74
2023/05/27 01:24:08;;;;;;;;;;;;;;;18.72;39.98;97350.69;6320900;28;19924;-74
2023/05/27 01:27:12;;;;;;;;;;;;;;;18.86;39.56;97348.66;6320800;28;19924;-74
2023/05/27 01:30:17;;;;;;;;;;;;;;;18.99;39.18;97357.19;6320786;28;19928;-75
2023/05/27 01:33:23;;;;;;;;;;;;;;;19.17;39.69;97354.69;6320894;28;20428;-74
2023/05/27 01:36:25;;;;;;;;;;;;;;;19.33;38.96;97356.75;6320273;28;19931;-72
2023/05/27 01:39:27;;;;;;;;;;;;;;;19.50;38.83;97361.34;6320278;28;19924;-74
2023/05/27 01:42:28;;;;;;;;;;;;;;;19.63;38.39;97351.22;6320146;28;19924;-74
2023/05/27 01:45:30;;;;;;;;;;;;;;;19.75;38.66;97354.59;6319895;28;19951;-75
2023/05/27 01:48:31;;;;;;;;;;;;;;;19.89;38.53;97350.63;6320106;28;19924;-74
2023/05/27 01:51:34;;;;;;;;;;;;;;;20.02;38.46;97345.78;6320590;28;19924;-74
2023/05/27 01:54:37;;;;;;;;;;;;;;;20.15;38.16;97351.63;6319820;28;19928;-74
2023/05/27 01:57:41;;;;;;;;;;;;;;;20.27;37.91;97354.09;6320344;28;19985;-74
2023/05/27 02:00:46;;;;;;;;;;;;;;;20.41;37.85;97350.97;6320347;28;19924;-74
2023/05/27 02:03:50;;;;;;;;;;;;;;;20.56;37.51;97352.16;6320079;28;19960;-74
2023/05/27 02:06:53;;;;;;;;;;;;;;;20.71;37.19;97346.28;6320312;28;19924;-74
2023/05/27 02:09:59;;;;;;;;;;;;;;;20.85;37.19;97353.78;6319723;28;19931;-75
2023/05/27 02:13:00;;;;;;;;;;;;;;;20.99;36.83;97358.59;6319851;28;19930;-74
2023/05/27 02:16:02;;;;;;;;;;;;;;;21.15;36.62;97355.25;6319901;28;19931;-74
2023/05/27 02:19:04;;;;;;;;;;;;;;;21.30;36.67;97363.56;6319964;28;19931;-75
2023/05/27 02:22:05;;;;;;;;;;;;;;;21.42;35.72;97362.34;6318309;28;20019;-74
2023/05/27 02:25:06;;;;;;;;;;;;;;;21.48;35.69;97356.38;6319709;28;20422;-74
2023/05/27 02:28:10;;;;;;;;;;;;;;;21.59;35.91;97360.63;6319920;28;20413;-74
2023/05/27 02:31:16;;;;;;;;;;;;;;;21.78;35.44;97361.44;6318582;28;20301;-74
2023/05/27 02:34:17;;;;;;;;;;;;;;;22.02;35.04;97352.69;6319814;28;20385;-75
2023/05/27 02:37:18;;;;;;;;;;;;;;;22.21;34.97;97352.47;6319747;28;20023;-73
2023/05/27 02:40:28;;;;;;;;;;;;;;;22.38;34.65;97362.25;6319213;28;19977;-73
2023/05/27 02:43:31;;;;;;;;;;;;;;;22.51;34.58;97363.66;6319021;28;19932;-74
2023/05/27 02:46:32;;;;;;;;;;;;;;;22.63;34.78;97357.00;6317674;28;19924;-73
2023/05/27 02:49:36;;;;;;;;;;;;;;;22.79;34.25;97358.88;6318884;28;19924;-74
2023/05/27 02:52:40;;;;;;;;;;;;;;;22.97;34.13;97366.81;6319447;28;19924;-74
2023/05/27 02:55:41;;;;;;;;;;;;;;;23.18;33.97;97366.34;6319136;28;19924;-74
2023/05/27 02:58:45;;;;;;;;;;;;;;;23.38;33.64;97373.06;6323878;28;20320;-74
2023/05/27 03:01:46;;;;;;;;;;;;;;;23.48;33.38;97370.22;6324040;28;20020;-74
2023/05/27 03:04:55;;;;;;;;;;;;;;;23.57;33.20;97368.34;6324423;28;20424;-74
2023/05/27 03:07:58;;;;;;;;;;;;;;;23.68;33.12;97368.00;6323506;28;19960;-75
2023/05/27 03:11:01;;;;;;;;;;;;;;;23.78;32.89;97374.09;6324301;28;20405;-74
2023/05/27 03:14:05;;;;;;;;;;;;;;;23.71;33.10;97368.53;6323825;28;19927;-74
2023/05/27 03:17:09;;;;;;;;;;;;;;;23.80;32.93;97376.59;6324348;28;19931;-74
2023/05/27 03:20:12;;;;;;;;;;;;;;;23.81;32.84;97368.38;6323888;28;19973;-74
2023/05/27 03:23:21;;;;;;;;;;;;;;;23.96;32.75;97365.81;6323947;28;19930;-74
2023/05/27 03:26:28;;;;;;;;;;;;;;;24.20;32.44;97363.06;6324064;28;19931;-75
2023/05/27 03:29:30;;;;;;;;;;;;;;;24.45;32.15;97365.66;6323775;28;19932;-74
2023/05/27 03:32:34;;;;;;;;;;;;;;;24.69;32.07;97370.13;6323715;28;19923;-73
2023/05/27 03:35:37;;;;;;;;;;;;;;;24.98;31.91;97372.13;6323392;28;19924;-75
2023/05/27 03:38:38;;;;;;;;;;;;;;;25.19;31.19;97370.66;6322442;28;19924;-73
2023/05/27 03:41:43;;;;;;;;;;;;;;;25.24;31.46;97373.66;6323422;28;19924;-74
2023/05/27 03:44:46;;;;;;;;;;;;;;;25.31;31.17;97375.47;6323546;28;20316;-74
2023/05/27 03:47:50;;;;;;;;;;;;;;;25.53;31.00;97371.09;6322052;28;19934;-74
2023/05/27 03:50:56;;;;;;;;;;;;;;;25.59;31.25;97369.50;6323290;28;19928;-74
2023/05/27 03:53:57;;;;;;;;;;;;;;;25.80;30.93;97371.50;6322791;28;19924;-74
2023/05/27 03:57:01;;;;;;;;;;;;;;;25.92;30.91;97370.06;6322731;28;19924;-75
2023/05/27 04:00:08;;;;;;;;;;;;;;;26.10;30.68;97376.94;6323103;28;20316;-73
2023/05/27 04:03:12;;;;;;;;;;;;;;;26.26;30.11;97374.06;6323009;28;19924;-74
2023/05/27 04:06:18;;;;;;;;;;;;;;;26.37;30.28;97373.59;6323067;28;19924;-74
2023/05/27 04:09:21;;;;;;;;;;;;;;;26.56;30.28;97369.53;6321911;28;19924;-74
2023/05/27 04:12:22;;;;;;;;;;;;;;;27.02;29.33;97371.09;6320899;28;20405;-73
2023/05/27 04:15:26;;;;;;;;;;;;;;;27.50;28.83;97368.69;6322089;28;20445;-73
2023/05/27 04:18:30;;;;;;;;;;;;;;;27.81;28.46;97376.47;6322597;28;20092;-74
2023/05/27 04:21:36;;;;;;;;;;;;;;;27.86;28.18;97368.59;6322377;28;19920;-74
2023/05/27 04:24:40;;;;;;;;;;;;;;;27.93;28.08;97371.34;6322136;28;19924;-74
2023/05/27 04:27:42;;;;;;;;;;;;;;;28.11;27.99;97373.53;6321687;28;19924;-74
2023/05/27 04:30:45;;;;;;;;;;;;;;;28.48;27.66;97369.63;6322356;28;20452;-75
2023/05/27 04:33:49;;;;;;;;;;;;;;;28.74;27.55;97362.66;6322008;28;19924;-73
2023/05/27 04:36:53;;;;;;;;;;;;;;;29.08;26.97;97368.00;6321207;28;19947;-74
2023/05/27 04:39:56;;;;;;;;;;;;;;;29.84;26.39;97371.41;6321632;28;19924;-74
2023/05/27 04:43:00;;;;;;;;;;;;;;;30.57;25.86;97365.88;6322035;28;19924;-74
2023/05/27 04:46:04;;;;;;;;;;;;;;;30.89;24.84;97369.53;6321575;28;19924;-74
2023/05/27 04:49:05;;;;;;;;;;;;;;;30.95;25.75;97370.56;6320923;28;20381;-74
2023/05/27 04:52:09;;;;;;;;;;;;;;;31.47;25.19;97366.69;6321923;28;19924;-74
2023/05/27 04:55:11;;;;;;;;;;;;;;;32.05;24.87;97373.78;6321379;28;19924;-73
2023/05/27 04:58:14;;;;;;;;;;;;;;;32.42;24.15;97376.53;6321859;28;20425;-73
2023/05/27 05:01:20;;;;;;;;;;;;;;;33.24;23.10;97381.66;6321336;28;20460;-73
2023/05/27 05:04:24;;;;;;;;;;;;;;;33.17;23.46;97380.91;6321429;28;20056;-74
2023/05/27 05:07:25;;;;;;;;;;;;;;;32.70;23.60;97375.19;6320879;28;19945;-74
2023/05/27 05:10:31;;;;;;;;;;;;;;;32.44;23.76;97377.13;6321289;28;20290;-74
2023/05/27 05:13:35;;;;;;;;;;;;;;;32.36;23.01;97369.28;6320767;28;20033;-74
2023/05/27 05:16:38;;;;;;;;;;;;;;;31.66;23.92;97375.75;6320702;28;19924;-74
2023/05/27 05:19:45;;;;;;;;;;;;;;;31.54;24.08;97366.66;6320164;28;20013;-75
2023/05/27 05:22:48;;;;;;;;;;;;;;;31.82;23.20;97362.63;6320551;28;20317;-74
2023/05/27 05:25:57;;;;;;;;;;;;;;;31.98;23.04;97367.56;6320748;28;19927;-74
2023/05/27 05:29:01;;;;;;;;;;;;;;;32.19;22.93;97372.59;6320386;28;20440;-74
2023/05/27 05:32:02;;;;;;;;;;;;;;;32.61;22.23;97372.78;6319764;28;19924;-74
2023/05/27 05:35:03;;;;;;;;;;;;;;;33.15;21.58;97374.84;6319027;28;20419;-74
2023/05/27 05:38:07;;;;;;;;;;;;;;;33.46;21.27;97376.47;6320366;28;19931;-74
2023/05/27 05:41:08;;;;;;;;;;;;;;;33.72;21.43;97384.28;6320432;28;19923;-75
2023/05/27 05:44:13;;;;;;;;;;;;;;;35.80;19.52;97381.84;6320812;28;19923;-74
2023/05/27 05:47:19;;;;;;;;;;;;;;;37.59;17.85;97378.75;6320802;28;19924;-73
2023/05/27 05:50:23;;;;;;;;;;;;;;;38.11;18.14;97383.59;6319953;28;19924;-73
2023/05/27 05:53:26;;;;;;;;;;;;;;;39.40;17.31;97377.63;6319604;28;19966;-73
2023/05/27 05:56:30;;;;;;;;;;;;;;;42.29;15.77;97389.81;6320651;28;19931;-74
2023/05/27 05:59:33;;;;;;;;;;;;;;;42.95;14.23;97381.94;6320646;28;20368;-74
2023/05/27 06:02:37;;;;;;;;;;;;;;;43.71;13.42;97377.25;6320627;28;20490;-73
2023/05/27 06:05:38;;;;;;;;;;;;;;;44.64;12.71;97376.47;6319711;28;19924;-74
2023/05/27 06:08:44;;;;;;;;;;;;;;;44.56;13.16;97364.97;6318795;28;19924;-74
2023/05/27 06:11:47;;;;;;;;;;;;;;;45.64;12.77;97373.78;6319910;28;19924;-74
2023/05/27 06:14:51;;;;;;;;;;;;;;;47.21;11.67;97373.44;6319731;28;19924;-72
2023/05/27 06:17:53;;;;;;;;;;;;;;;46.64;9.92;97376.19;6318427;28;19951;-74
2023/05/27 06:20:56;;;;;;;;;;;;;;;45.21;10.64;97365.84;6319945;28;20072;-74
2023/05/27 06:23:59;;;;;;;;;;;;;;;44.88;9.61;97366.00;6320035;28;19931;-74
2023/05/27 06:27:02;;;;;;;;;;;;;;;43.83;10.27;97360.19;6319445;28;19931;-74
2023/05/27 06:30:06;;;;;;;;;;;;;;;43.55;10.63;97351.75;6319638;28;19931;-74
2023/05/27 06:33:07;;;;;;;;;;;;;;;44.24;10.71;97353.91;6322797;28;20393;-74
2023/05/27 06:36:09;;;;;;;;;;;;;;;45.13;9.61;97355.47;6324078;28;19924;-75
2023/05/27 06:39:12;;;;;;;;;;;;;;;43.93;10.45;97348.91;6324251;28;19935;-74
2023/05/27 06:42:19;;;;;;;;;;;;;;;44.28;10.46;97341.09;6324967;28;19931;-74
2023/05/27 06:45:28;;;;;;;;;;;;;;;44.34;10.27;97345.41;6324788;28;19924;-73
2023/05/27 06:48:29;;;;;;;;;;;;;;;44.23;10.38;97350.31;6324257;28;19935;-74
2023/05/27 06:51:33;;;;;;;;;;;;;;;43.86;10.26;97345.72;6322750;28;20431;-74
2023/05/27 06:54:37;;;;;;;;;;;;;;;43.72;10.49;97349.25;6324394;28;20406;-74
2023/05/27 06:57:42;;;;;;;;;;;;;;;44.76;9.74;97343.50;6324567;28;20381;-74
2023/05/27 07:00:43;;;;;;;;;;;;;;;45.64;9.33;97348.78;6323822;28;20016;-74
2023/05/27 07:03:46;;;;;;;;;;;;;;;46.89;9.09;97348.78;6323629;28;20397;-73
2023/05/27 07:06:48;;;;;;;;;;;;;;;47.45;8.59;97349.88;6323682;28;19997;-73
2023/05/27 07:09:53;;;;;;;;;;;;;;;48.30;7.83;97352.88;6324295;28;20393;-73
2023/05/27 07:12:55;;;;;;;;;;;;;;;47.88;7.52;97347.06;6323908;28;19924;-72
2023/05/27 07:15:59;;;;;;;;;;;;;;;47.46;7.86;97345.94;6323876;28;20307;-74
2023/05/27 07:19:01;;;;;;;;;;;;;;;46.78;8.04;97343.50;6323235;28;20423;-74
2023/05/27 07:22:03;;;;;;;;;;;;;;;46.51;8.51;97338.16;6323609;28;19931;-73
2023/05/27 07:25:07;;;;;;;;;;;;;;;46.41;8.75;97327.34;6323603;28;20389;-73
2023/05/27 07:28:09;;;;;;;;;;;;;;;47.74;7.91;97337.22;6323565;28;19924;-72
2023/05/27 07:31:13;;;;;;;;;;;;;;;46.56;8.87;97335.22;6322897;28;20030;-74
2023/05/27 07:34:18;;;;;;;;;;;;;;;45.61;9.04;97332.72;6323491;28;19924;-74
2023/05/27 07:37:23;;;;;;;;;;;;;;;43.22;10.56;97323.16;6323623;28;20394;-75
2023/05/27 07:40:27;;;;;;;;;;;;;;;43.25;9.97;97328.09;6323750;28;19924;-74
2023/05/27 07:43:31;;;;;;;;;;;;;;;44.07;9.38;97322.03;6322904;28;20414;-74
2023/05/27 07:46:33;;;;;;;;;;;;;;;44.56;9.08;97320.56;6321634;28;19946;-73
2023/05/27 07:49:40;;;;;;;;;;;;;;;44.25;9.34;97319.50;6323240;28;19924;-74
2023/05/27 07:52:44;;;;;;;;;;;;;;;43.76;9.48;97323.69;6323534;28;19931;-74
2023/05/27 07:55:50;;;;;;;;;;;;;;;43.74;9.57;97312.94;6323457;28;20443;-74
2023/05/27 07:58:51;;;;;;;;;;;;;;;43.91;9.20;97326.22;6322363;28;19924;-73
2023/05/27 08:01:56;;;;;;;;;;;;;;;43.79;9.29;97317.53;6322833;28;19924;-73
2023/05/27 08:05:00;;;;;;;;;;;;;;;44.58;9.14;97318.28;6321704;28;19927;-74
2023/05/27 08:08:08;;;;;;;;;;;;;;;44.26;9.39;97308.09;6322917;28;19924;-74
2023/05/27 08:11:12;;;;;;;;;;;;;;;45.14;9.32;97312.72;6322216;28;19931;-73
2023/05/27 08:14:13;;;;;;;;;;;;;;;46.10;8.55;97317.03;6322297;28;19946;-74
2023/05/27 08:17:16;;;;;;;;;;;;;;;44.77;8.84;97314.63;6321793;28;19924;-73
2023/05/27 08:20:21;;;;;;;;;;;;;;;43.13;10.19;97298.06;6322558;28;20393;-73
2023/05/27 08:23:26;;;;;;;;;;;;;;;44.11;9.56;97300.09;6321111;28;19920;-73
2023/05/27 08:26:29;;;;;;;;;;;;;;;44.89;9.05;97301.00;6322418;28;19935;-73
2023/05/27 08:29:36;;;;;;;;;;;;;;;43.91;9.10;97290.19;6322376;28;19927;-73
2023/05/27 08:32:42;;;;;;;;;;;;;;;41.50;10.16;97282.19;6322789;28;20319;-73
2023/05/27 08:35:48;;;;;;;;;;;;;;;39.68;11.24;97275.19;6321951;28;19920;-73
2023/05/27 08:38:55;;;;;;;;;;;;;;;39.44;11.32;97274.13;6321882;28;19930;-73
2023/05/27 08:42:00;;;;;;;;;;;;;;;39.88;11.51;97277.13;6322098;28;19924;-72
2023/05/27 08:45:01;;;;;;;;;;;;;;;40.26;11.06;97268.53;6320686;28;19931;-74
2023/05/27 08:48:02;;;;;;;;;;;;;;;39.96;11.38;97270.22;6320372;28;19924;-74
2023/05/27 08:51:06;;;;;;;;;;;;;;;39.86;11.50;97270.22;6321793;28;19924;-74
2023/05/27 08:54:08;;;;;;;;;;;;;;;39.44;11.39;97274.13;6320289;28;20297;-74
2023/05/27 08:57:17;;;;;;;;;;;;;;;38.61;12.39;97261.25;6321571;28;19928;-73
2023/05/27 09:00:18;;;;;;;;;;;;;;;39.91;11.70;97265.53;6321328;28;19947;-75
2023/05/27 09:03:24;;;;;;;;;;;;;;;41.24;11.11;97272.44;6321672;28;19924;-73
2023/05/27 09:06:27;;;;;;;;;;;;;;;42.73;10.26;97274.53;6321476;28;19924;-74
2023/05/27 09:09:30;;;;;;;;;;;;;;;42.41;10.53;97283.50;6321348;28;19924;-74
2023/05/27 09:12:35;;;;;;;;;;;;;;;42.09;10.78;97283.00;6321406;28;19924;-74
2023/05/27 09:15:41;;;;;;;;;;;;;;;42.80;10.37;97273.06;6321305;28;20397;-72
2023/05/27 09:18:45;;;;;;;;;;;;;;;44.65;8.98;97278.22;6320704;28;20401;-73
2023/05/27 09:21:55;;;;;;;;;;;;;;;45.12;8.61;97268.53;6320638;28;19931;-74
2023/05/27 09:24:56;;;;;;;;;;;;;;;45.61;8.41;97280.75;6320481;28;19931;-73
2023/05/27 09:27:59;;;;;;;;;;;;;;;45.76;7.80;97273.13;6320859;28;19924;-73
2023/05/27 09:31:04;;;;;;;;;;;;;;;44.21;8.56;97268.56;6320684;28;19931;-73
2023/05/27 09:34:15;;;;;;;;;;;;;;;42.50;9.49;97259.63;6320239;28;19924;-73
2023/05/27 09:37:20;;;;;;;;;;;;;;;43.05;8.94;97271.84;6320841;28;19930;-74
2023/05/27 09:40:22;;;;;;;;;;;;;;;43.66;8.40;97259.03;6320857;28;19924;-74
2023/05/27 09:43:28;;;;;;;;;;;;;;;44.27;8.53;97259.00;6320384;28;19919;-73
2023/05/27 09:46:32;;;;;;;;;;;;;;;45.60;7.81;97265.19;6320568;28;19924;-74
2023/05/27 09:49:39;;;;;;;;;;;;;;;46.71;7.30;97256.03;6320408;28;19923;-74
2023/05/27 09:52:41;;;;;;;;;;;;;;;47.82;6.94;97261.13;6319769;28;19927;-73
2023/05/27 09:55:42;;;;;;;;;;;;;;;48.84;6.65;97270.47;6319931;28;19930;-73
2023/05/27 09:58:44;;;;;;;;;;;;;;;48.68;5.79;97264.69;6318684;28;20344;-74
2023/05/27 10:01:49;;;;;;;;;;;;;;;47.15;6.35;97259.69;6319810;28;19964;-73
2023/05/27 10:04:55;;;;;;;;;;;;;;;46.34;6.59;97249.88;6320007;28;19924;-73
2023/05/27 10:07:58;;;;;;;;;;;;;;;46.35;6.83;97252.34;6320034;28;19930;-73
2023/05/27 10:11:01;;;;;;;;;;;;;;;46.33;6.66;97253.81;6319817;28;20027;-74
2023/05/27 10:14:07;;;;;;;;;;;;;;;44.78;7.46;97244.06;6320133;28;20058;-73
2023/05/27 10:17:13;;;;;;;;;;;;;;;43.71;8.26;97239.53;6319412;28;20519;-74
2023/05/27 10:20:45;;;;;;;;;;;;;;;44.38;8.13;97241.03;6319786;28;19924;-74
2023/05/27 10:23:58;;;;;;;;;;;;;;;44.04;7.96;97233.94;6307973;28;19920;-73
2023/05/27 10:27:02;;;;;;;;;;;;;;;44.47;8.08;97225.28;6319802;28;20449;-73
2023/05/27 10:30:04;;;;;;;;;;;;;;;45.04;7.77;97228.47;6319309;28;19932;-74
2023/05/27 10:33:05;;;;;;;;;;;;;;;45.97;7.39;97234.50;6319512;28;19931;-74
2023/05/27 10:36:13;;;;;;;;;;;;;;;45.77;7.51;97225.53;6319937;28;19931;-74
2023/05/27 10:39:18;;;;;;;;;;;;;;;44.94;7.99;97220.38;6319515;28;20345;-72
2023/05/27 10:42:25;;;;;;;;;;;;;;;44.95;7.69;97216.44;6296831;28;19928;-74
2023/05/27 10:45:33;;;;;;;;;;;;;;;44.89;7.90;97212.16;6293980;28;20393;-74
2023/05/27 10:48:35;;;;;;;;;;;;;;;44.83;8.00;97212.59;6294735;28;19936;-74
2023/05/27 10:51:39;;;;;;;;;;;;;;;44.64;8.31;97212.72;6294652;28;20343;-72
2023/05/27 10:54:46;;;;;;;;;;;;;;;45.02;7.80;97216.84;6294681;28;19924;-74
2023/05/27 10:57:48;;;;;;;;;;;;;;;45.12;7.86;97214.94;6294176;28;19924;-73
2023/05/27 11:00:56;;;;;;;;;;;;;;;44.83;7.93;97207.88;6294552;28;19925;-73
2023/05/27 11:04:00;;;;;;;;;;;;;;;43.63;7.86;97197.84;6294545;28;19927;-74
2023/05/27 11:07:03;;;;;;;;;;;;;;;42.56;8.84;97205.88;6294286;28;19924;-74
2023/05/27 11:10:08;;;;;;;;;;;;;;;40.85;9.93;97198.69;6294633;28;19925;-74
2023/05/27 11:13:12;;;;;;;;;;;;;;;38.63;12.02;97190.34;6294582;28;20069;-74
2023/05/27 11:16:13;;;;;;;;;;;;;;;37.44;13.01;97184.53;6293353;28;20090;-74
2023/05/27 11:19:20;;;;;;;;;;;;;;;36.69;13.41;97176.22;6297879;28;19924;-74
2023/05/27 11:22:26;;;;;;;;;;;;;;;36.72;13.55;97177.59;6298936;28;20347;-74
2023/05/27 11:25:40;;;;;;;;;;;;;;;37.35;13.07;97170.47;6298219;28;19924;-74
2023/05/27 11:28:47;;;;;;;;;;;;;;;37.72;12.82;97167.69;6298683;28;19925;-73
2023/05/27 11:31:51;;;;;;;;;;;;;;;37.23;12.96;97159.69;6298150;28;19924;-74
2023/05/27 11:34:54;;;;;;;;;;;;;;;37.32;13.43;97176.50;6298303;28;19976;-74
2023/05/27 11:37:58;;;;;;;;;;;;;;;37.11;13.11;97182.91;6298718;28;19924;-73
2023/05/27 11:41:08;;;;;;;;;;;;;;;37.19;11.86;97163.22;6297970;28;19970;-73
2023/05/27 11:44:09;;;;;;;;;;;;;;;37.71;11.58;97170.72;6298182;28;19938;-73
2023/05/27 11:47:10;;;;;;;;;;;;;;;37.93;11.00;97156.81;6298263;28;20003;-74
2023/05/27 11:50:17;;;;;;;;;;;;;;;37.82;11.20;97155.94;6298212;28;19921;-73
2023/05/27 11:53:22;;;;;;;;;;;;;;;37.57;11.38;97153.03;6298460;28;19924;-74
2023/05/27 11:56:24;;;;;;;;;;;;;;;37.03;12.32;97165.03;6298022;28;19920;-75
2023/05/27 11:59:28;;;;;;;;;;;;;;;36.10;14.27;97157.75;6298292;28;19928;-73
2023/05/27 12:02:33;;;;;;;;;;;;;;;35.62;14.63;97148.34;6298401;28;19972;-74
2023/05/27 12:05:38;;;;;;;;;;;;;;;35.63;15.07;97146.44;6298284;28;19924;-73
2023/05/27 12:08:41;;;;;;;;;;;;;;;35.10;15.24;97145.91;6297795;28;19924;-74
2023/05/27 12:11:45;;;;;;;;;;;;;;;34.84;15.28;97140.00;6298065;28;19924;-73
2023/05/27 12:14:46;;;;;;;;;;;;;;;34.57;15.50;97144.47;6296972;28;19936;-74
2023/05/27 12:17:49;;;;;;;;;;;;;;;34.42;15.70;97143.09;6297506;28;19925;-74
2023/05/27 12:20:50;;;;;;;;;;;;;;;34.01;16.19;97140.63;6297591;28;19947;-74
2023/05/27 12:23:54;;;;;;;;;;;;;;;33.76;16.31;97144.47;6297216;28;19924;-74
2023/05/27 12:26:55;;;;;;;;;;;;;;;34.01;16.25;97148.81;6296875;28;19951;-73
2023/05/27 12:29:58;;;;;;;;;;;;;;;33.67;16.68;97148.66;6296833;28;19924;-74
2023/05/27 12:32:59;;;;;;;;;;;;;;;33.01;17.17;97148.78;6297014;28;20447;-75
2023/05/27 12:36:01;;;;;;;;;;;;;;;33.00;17.01;97144.38;6296592;28;19925;-73
2023/05/27 12:39:02;;;;;;;;;;;;;;;33.08;16.97;97143.19;6296265;28;19978;-74
2023/05/27 12:42:03;;;;;;;;;;;;;;;32.97;16.89;97147.53;6296842;28;20018;-75
2023/05/27 12:45:04;;;;;;;;;;;;;;;32.68;17.34;97143.00;6296427;28;20088;-74
2023/05/27 12:48:07;;;;;;;;;;;;;;;32.70;17.36;97139.00;6296825;28;19999;-74
2023/05/27 12:51:11;;;;;;;;;;;;;;;32.42;17.46;97145.88;6296659;28;19920;-75
2023/05/27 12:54:12;;;;;;;;;;;;;;;32.28;17.25;97132.69;6296146;28;20459;-74
2023/05/27 12:57:13;;;;;;;;;;;;;;;32.34;16.84;97137.19;6295640;28;19920;-74
2023/05/27 13:00:18;;;;;;;;;;;;;;;32.19;16.32;97135.72;6296559;28;19924;-74
2023/05/27 13:03:20;;;;;;;;;;;;;;;32.18;16.32;97139.50;6296346;28;19924;-74
2023/05/27 13:06:24;;;;;;;;;;;;;;;31.97;16.50;97131.84;6296247;28;20295;-74
2023/05/27 13:09:25;;;;;;;;;;;;;;;31.84;16.80;97140.13;6295527;28;19938;-74
2023/05/27 13:12:27;;;;;;;;;;;;;;;31.44;17.14;97141.41;6295547;28;20440;-75
2023/05/27 13:15:31;;;;;;;;;;;;;;;31.25;16.88;97135.13;6295696;28;19924;-74
2023/05/27 13:18:32;;;;;;;;;;;;;;;31.17;16.95;97127.25;6295875;28;19924;-75
2023/05/27 13:21:33;;;;;;;;;;;;;;;31.16;17.42;97152.75;6295343;28;20002;-74
2023/05/27 13:24:36;;;;;;;;;;;;;;;31.13;17.17;97136.06;6295942;28;20014;-73
2023/05/27 13:27:38;;;;;;;;;;;;;;;31.19;17.29;97129.72;6295436;28;19932;-74
2023/05/27 13:30:40;;;;;;;;;;;;;;;31.20;17.19;97126.81;6293551;28;20389;-75
2023/05/27 13:33:46;;;;;;;;;;;;;;;31.32;17.54;97138.59;6295343;28;19982;-73
2023/05/27 13:36:52;;;;;;;;;;;;;;;31.15;17.87;97137.50;6295576;28;19924;-73
2023/05/27 13:39:57;;;;;;;;;;;;;;;30.99;17.28;97138.91;6295149;28;19924;-74
2023/05/27 13:43:02;;;;;;;;;;;;;;;30.83;17.27;97137.59;6295601;28;19924;-75
2023/05/27 13:46:06;;;;;;;;;;;;;;;30.80;17.03;97140.75;6295330;28;19925;-74
2023/05/27 13:49:07;;;;;;;;;;;;;;;30.64;17.86;97130.41;6294985;28;19924;-74
2023/05/27 13:52:08;;;;;;;;;;;;;;;30.41;17.88;97129.09;6294284;28;20304;-75
2023/05/27 13:55:12;;;;;;;;;;;;;;;30.57;18.35;97135.03;6295406;28;19994;-73
2023/05/27 13:58:16;;;;;;;;;;;;;;;30.30;18.47;97132.50;6295190;28;19924;-74
2023/05/27 14:01:22;;;;;;;;;;;;;;;30.09;18.62;97135.50;6294020;28;19925;-73
2023/05/27 14:04:27;;;;;;;;;;;;;;;29.88;19.04;97136.66;6294825;28;19931;-74
2023/05/27 14:07:30;;;;;;;;;;;;;;;29.73;19.20;97136.94;6294991;28;20006;-74
2023/05/27 14:10:34;;;;;;;;;;;;;;;29.55;19.47;97134.88;6295029;28;19932;-73
2023/05/27 14:13:38;;;;;;;;;;;;;;;29.49;19.38;97131.13;6295319;28;19928;-74
2023/05/27 14:16:41;;;;;;;;;;;;;;;29.47;19.15;97125.13;6294873;28;20349;-74
2023/05/27 14:19:44;;;;;;;;;;;;;;;29.44;19.02;97136.38;6294746;28;19924;-74
2023/05/27 14:22:48;;;;;;;;;;;;;;;29.62;19.10;97124.03;6294846;28;19931;-74
2023/05/27 14:25:51;;;;;;;;;;;;;;;29.70;19.03;97132.78;6294472;28;19920;-74
2023/05/27 14:28:58;;;;;;;;;;;;;;;29.74;18.79;97133.19;6294855;28;20321;-73
2023/05/27 14:32:02;;;;;;;;;;;;;;;29.68;19.18;97129.44;6294851;28;19943;-75
2023/05/27 14:35:03;;;;;;;;;;;;;;;29.46;19.15;97126.13;6294684;28;19920;-74
2023/05/27 14:38:05;;;;;;;;;;;;;;;29.40;19.48;97124.28;6293802;28;19935;-74
2023/05/27 14:41:09;;;;;;;;;;;;;;;29.26;19.66;97130.78;6294764;28;19924;-74
2023/05/27 14:44:14;;;;;;;;;;;;;;;29.14;20.00;97124.34;6294089;28;19920;-74
2023/05/27 14:47:15;;;;;;;;;;;;;;;29.08;20.15;97129.56;6294300;28;19925;-75
2023/05/27 14:50:21;;;;;;;;;;;;;;;28.86;20.51;97137.03;6294093;28;19920;-75
2023/05/27 14:53:24;;;;;;;;;;;;;;;28.77;20.85;97137.47;6298442;28;20027;-75
2023/05/27 14:56:28;;;;;;;;;;;;;;;28.70;21.04;97129.34;6299355;28;19928;-74
2023/05/27 14:59:29;;;;;;;;;;;;;;;28.47;21.47;97137.03;6298828;28;19932;-74
2023/05/27 15:02:35;;;;;;;;;;;;;;;28.24;21.59;97132.81;6299360;28;20442;-75
2023/05/27 15:05:38;;;;;;;;;;;;;;;28.06;22.05;97135.25;6298939;28;19921;-73
2023/05/27 15:08:41;;;;;;;;;;;;;;;27.92;22.20;97134.38;6298648;28;19924;-74
2023/05/27 15:11:45;;;;;;;;;;;;;;;27.70;22.67;97134.47;6298182;28;19931;-74
2023/05/27 15:14:48;;;;;;;;;;;;;;;27.64;22.85;97131.75;6298509;28;19924;-74
2023/05/27 15:17:49;;;;;;;;;;;;;;;27.54;23.20;97126.69;6297406;28;19970;-73
2023/05/27 15:20:52;;;;;;;;;;;;;;;27.24;23.18;97131.53;6298485;28;20393;-75
2023/05/27 15:23:56;;;;;;;;;;;;;;;27.12;23.94;97131.22;6298349;28;20294;-75
2023/05/27 15:26:57;;;;;;;;;;;;;;;26.98;24.24;97126.78;6298123;28;20065;-75
2023/05/27 15:30:02;;;;;;;;;;;;;;;26.85;24.60;97133.72;6298786;28;19925;-74
2023/05/27 15:33:05;;;;;;;;;;;;;;;26.91;25.20;97131.28;6298279;28;19924;-74
2023/05/27 15:36:07;;;;;;;;;;;;;;;26.61;25.14;97136.81;6298150;28;19931;-74
2023/05/27 15:39:08;;;;;;;;;;;;;;;26.39;25.56;97136.81;6297818;28;19924;-73
2023/05/27 15:42:11;;;;;;;;;;;;;;;26.35;25.91;97143.63;6297868;28;20089;-75
2023/05/27 15:45:16;;;;;;;;;;;;;;;26.13;26.49;97139.25;6298310;28;19946;-74
2023/05/27 15:48:17;;;;;;;;;;;;;;;26.15;27.06;97138.03;6297690;28;19932;-75
2023/05/27 15:51:21;;;;;;;;;;;;;;;25.83;27.13;97136.63;6298216;28;20301;-74
2023/05/27 15:54:24;;;;;;;;;;;;;;;25.87;28.03;97142.47;6298041;28;20385;-75
2023/05/27 15:57:27;;;;;;;;;;;;;;;25.48;27.88;97130.16;6297796;28;20031;-75